Time;durP1;ratioP1;P1;durP2;ratioP2;P2;SDS_P1;SDS_P2;PMS_P1;PMS_P2;Temp;Humidity;BMP_temperature;BMP_pressure;BME280_temperature;BME280_humidity;BME280_pressure;Samples;Min_cycle;Max_cycle;Signal;HPM_P1;HPM_P2
2021/01/23 00:01:28;;;;;;;54.63;26.80;;;;;;;0.30;91.79;98791.66;3513169;28;20044;-48
2021/01/23 00:03:10;;;;;;;57.22;26.30;;;;;;;0.30;91.52;98798.44;3515883;28;20081;-57
2021/01/23 00:04:51;;;;;;;50.00;25.35;;;;;;;0.30;91.87;98809.53;3512517;28;20048;-57
2021/01/23 00:06:33;;;;;;;49.50;23.88;;;;;;;0.30;91.99;98801.00;3513116;28;20055;-56
2021/01/23 00:08:15;;;;;;;48.30;24.60;;;;;;;0.28;91.70;98795.84;3512987;28;20105;-57
2021/01/23 00:09:57;;;;;;;54.78;25.33;;;;;;;0.26;91.87;98807.66;3513215;28;20043;-57
2021/01/23 00:11:38;;;;;;;53.33;25.35;;;;;;;0.25;91.67;98811.00;3512851;28;20527;-57
2021/01/23 00:13:20;;;;;;;53.05;26.92;;;;;;;0.23;91.54;98816.03;3513985;28;20051;-57
2021/01/23 00:15:02;;;;;;;47.80;25.95;;;;;;;0.22;92.03;98818.53;3516656;28;20075;-57
2021/01/23 00:16:43;;;;;;;52.95;25.02;;;;;;;0.21;91.90;98811.72;3515306;28;20043;-57
2021/01/23 00:18:25;;;;;;;49.25;24.80;;;;;;;0.20;91.64;98822.69;3511029;28;20189;-57
2021/01/23 00:20:08;;;;;;;57.13;25.50;;;;;;;0.18;91.93;98814.97;3514116;28;20091;-57
2021/01/23 00:21:50;;;;;;;49.72;26.70;;;;;;;0.17;91.93;98820.03;3514739;28;20098;-57
2021/01/23 00:23:32;;;;;;;51.03;25.92;;;;;;;0.16;91.88;98815.75;3515912;28;20044;-57
2021/01/23 00:25:13;;;;;;;56.50;26.20;;;;;;;0.15;91.94;98819.09;3513423;28;20469;-56
2021/01/23 00:26:55;;;;;;;48.83;24.38;;;;;;;0.13;91.61;98823.25;3516003;28;20071;-57
2021/01/23 00:28:37;;;;;;;52.10;26.95;;;;;;;0.11;91.83;98817.22;3513366;28;20053;-57
2021/01/23 00:30:19;;;;;;;51.38;24.05;;;;;;;0.10;91.81;98812.94;3516615;28;20135;-56
2021/01/23 00:32:01;;;;;;;49.28;24.35;;;;;;;0.08;91.74;98820.50;3512690;28;20486;-57
2021/01/23 00:33:43;;;;;;;44.13;23.27;;;;;;;0.06;91.79;98809.38;3511924;28;20124;-44
2021/01/23 00:35:25;;;;;;;44.55;24.40;;;;;;;0.04;91.87;98816.97;3510278;28;20059;-46
2021/01/23 00:37:07;;;;;;;51.45;27.40;;;;;;;0.02;91.73;98804.97;3516842;28;20055;-44
2021/01/23 00:38:50;;;;;;;46.42;23.35;;;;;;;-0.00;92.12;98809.16;3512956;28;20055;-44
2021/01/23 00:40:31;;;;;;;53.55;27.13;;;;;;;-0.00;92.10;98809.16;3515364;28;20483;-44
2021/01/23 00:42:13;;;;;;;46.95;23.63;;;;;;;-0.02;92.13;98803.97;3514086;28;20427;-44
2021/01/23 00:43:54;;;;;;;47.40;25.35;;;;;;;-0.02;91.85;98795.47;3516503;28;20054;-45
2021/01/23 00:45:36;;;;;;;48.28;24.77;;;;;;;-0.03;91.93;98798.81;3511914;28;20139;-44
2021/01/23 00:47:18;;;;;;;45.58;24.77;;;;;;;-0.04;92.18;98797.06;3515831;28;20044;-47
2021/01/23 00:49:00;;;;;;;44.88;23.98;;;;;;;-0.05;92.23;98795.34;3515053;28;20101;-46
2021/01/23 00:50:41;;;;;;;39.72;22.25;;;;;;;-0.04;92.15;98791.97;3517101;28;20326;-47
2021/01/23 00:52:23;;;;;;;42.35;20.77;;;;;;;-0.07;92.22;98792.72;3513573;28;20515;-46
2021/01/23 00:54:05;;;;;;;40.03;22.80;;;;;;;-0.05;92.40;98793.66;3516675;28;20522;-45
2021/01/23 00:55:47;;;;;;;45.38;22.52;;;;;;;-0.07;92.48;98785.06;3512772;28;20047;-47
2021/01/23 00:57:29;;;;;;;43.50;22.75;;;;;;;-0.06;92.23;98789.38;3516100;28;20043;-45
2021/01/23 00:59:11;;;;;;;42.85;23.00;;;;;;;-0.05;92.52;98787.69;3512028;28;20048;-44
2021/01/23 01:00:52;;;;;;;43.40;23.10;;;;;;;-0.07;92.27;98781.66;3516119;28;20051;-47
2021/01/23 01:02:34;;;;;;;43.05;22.00;;;;;;;-0.07;92.32;98784.22;3512772;28;20063;-44
2021/01/23 01:04:16;;;;;;;40.40;21.45;;;;;;;-0.08;92.40;98782.44;3516406;28;20095;-47
2021/01/23 01:05:57;;;;;;;43.10;22.40;;;;;;;-0.08;92.23;98782.44;3513252;28;20052;-44
2021/01/23 01:07:39;;;;;;;38.85;20.70;;;;;;;-0.07;92.53;98791.84;3516869;28;20078;-44
2021/01/23 01:09:21;;;;;;;41.72;22.77;;;;;;;-0.08;92.58;98793.50;3512770;28;20054;-44
2021/01/23 01:11:03;;;;;;;40.80;21.55;;;;;;;-0.08;92.59;98797.75;3516642;28;20048;-45
2021/01/23 01:12:45;;;;;;;51.17;23.88;;;;;;;-0.10;92.36;98789.16;3509356;28;20047;-44
2021/01/23 01:14:26;;;;;;;49.20;22.90;;;;;;;-0.11;92.44;98797.59;3515178;28;20056;-45
2021/01/23 01:16:08;;;;;;;49.60;22.58;;;;;;;-0.14;92.15;98793.28;3513146;28;20047;-45
2021/01/23 01:17:49;;;;;;;50.80;22.85;;;;;;;-0.15;92.37;98802.59;3516847;28;20075;-43
2021/01/23 01:19:31;;;;;;;50.65;25.02;;;;;;;-0.17;92.20;98805.88;3513222;28;20059;-46
2021/01/23 01:21:13;;;;;;;41.30;21.25;;;;;;;-0.20;92.08;98806.63;3515906;28;20048;-46
2021/01/23 01:22:54;;;;;;;41.72;21.35;;;;;;;-0.22;92.30;98804.81;3513653;28;20134;-46
2021/01/23 01:24:37;;;;;;;44.92;22.30;;;;;;;-0.24;92.13;98798.78;3517044;28;20129;-57
2021/01/23 01:26:19;;;;;;;40.95;21.77;;;;;;;-0.26;92.55;98798.72;3512328;28;20052;-44
2021/01/23 01:28:01;;;;;;;44.47;22.20;;;;;;;-0.26;92.39;98801.25;3516916;28;20561;-44
2021/01/23 01:29:42;;;;;;;44.55;22.58;;;;;;;-0.26;92.53;98801.25;3512745;28;20067;-45
2021/01/23 01:31:24;;;;;;;44.95;21.67;;;;;;;-0.26;92.64;98802.94;3518655;28;20583;-45
2021/01/23 01:33:05;;;;;;;43.25;21.52;;;;;;;-0.26;92.49;98801.25;3506660;28;20047;-44
2021/01/23 01:34:47;;;;;;;41.83;22.25;;;;;;;-0.26;92.54;98798.72;3518711;28;20040;-45
2021/01/23 01:36:29;;;;;;;43.63;21.45;;;;;;;-0.25;92.52;98795.38;3510618;28;20462;-45
2021/01/23 01:38:10;;;;;;;46.35;22.45;;;;;;;-0.24;92.59;98786.03;3518112;28;20420;-44
2021/01/23 01:39:53;;;;;;;40.90;20.83;;;;;;;-0.24;92.77;98784.34;3508283;28;20416;-44
2021/01/23 01:41:36;;;;;;;43.13;21.88;;;;;;;-0.24;92.68;98784.34;3517334;28;20057;-47
2021/01/23 01:43:18;;;;;;;46.63;22.05;;;;;;;-0.22;92.74;98780.22;3512738;28;20454;-45
2021/01/23 01:45:00;;;;;;;43.20;22.55;;;;;;;-0.19;92.87;98779.47;3514472;28;20497;-44
2021/01/23 01:46:42;;;;;;;41.33;21.83;;;;;;;-0.16;92.84;98780.47;3511027;28;20052;-46
2021/01/23 01:48:24;;;;;;;46.60;21.88;;;;;;;-0.15;92.81;98782.22;3518566;28;20143;-45
2021/01/23 01:50:06;;;;;;;47.50;20.83;;;;;;;-0.11;93.05;98785.75;3510267;28;20071;-47
2021/01/23 01:51:52;;;;;;;;;;;;;;;-0.09;93.06;98788.38;3516800;28;20445;-45
2021/01/23 01:53:37;;;;;;;37.80;19.60;;;;;;;-0.05;93.14;98790.22;3510248;28;20424;-44
2021/01/23 01:55:24;;;;;;;38.22;20.13;;;;;;;-0.02;93.20;98782.72;3516233;28;20059;-46
2021/01/23 01:57:06;;;;;;;45.88;23.08;;;;;;;0.01;92.80;98793.91;3513225;28;20082;-44
2021/01/23 01:58:48;;;;;;;48.38;24.13;;;;;;;0.04;92.89;98796.56;3516163;28;20044;-57
2021/01/23 02:00:30;;;;;;;62.75;26.05;;;;;;;0.05;92.68;98802.56;3511676;28;20093;-57
2021/01/23 02:02:29;;;;;;;58.28;26.13;;;;;;;0.06;92.70;98801.72;3515924;28;20055;-57
2021/01/23 02:04:31;;;;;;;48.80;22.88;;;;;;;0.06;92.48;98799.19;3513425;28;20147;-57
2021/01/23 02:06:24;;;;;;;42.92;22.70;;;;;;;0.06;92.49;98794.09;3509638;28;20486;-57
2021/01/23 02:08:17;;;;;;;45.08;21.92;;;;;;;0.03;92.52;98794.84;3515283;28;20044;-45
2021/01/23 02:10:07;;;;;;;53.40;23.55;;;;;;;0.03;92.08;98799.94;3510670;28;20079;-45
2021/01/23 02:12:01;;;;;;;39.80;20.85;;;;;;;0.02;92.41;98793.09;3514301;28;20051;-46
2021/01/23 02:13:49;;;;;;;44.95;22.90;;;;;;;0.03;92.38;98792.28;3511055;28;20044;-44
2021/01/23 02:15:38;;;;;;;46.03;21.27;;;;;;;0.01;92.16;98790.47;3514179;28;20130;-57
2021/01/23 02:17:28;;;;;;;36.90;20.60;;;;;;;0.01;92.12;98776.06;3513329;28;20052;-57
2021/01/23 02:19:17;;;;;;;39.95;21.95;;;;;;;0.00;92.29;98776.84;3512835;28;20401;-57
2021/01/23 02:21:34;;;;;;;39.63;20.73;;;;;;;0.02;92.07;98789.69;3511461;28;20424;-57
2021/01/23 02:23:18;;;;;;;43.15;20.70;;;;;;;0.02;92.66;98785.44;3510697;28;20061;-57
2021/01/23 02:25:02;;;;;;;44.55;20.85;;;;;;;0.04;92.21;98795.69;3515665;28;20233;-57
2021/01/23 02:27:07;;;;;;;41.55;21.60;;;;;;;0.04;92.26;98796.56;3510917;28;20063;-57
2021/01/23 02:29:03;;;;;;;40.42;21.27;;;;;;;0.05;92.02;98794.91;3513506;28;20070;-57
2021/01/23 02:31:00;;;;;;;43.63;22.10;;;;;;;0.05;92.29;98792.34;3512530;28;20496;-57
2021/01/23 02:32:44;;;;;;;42.97;21.20;;;;;;;0.04;91.86;98798.25;3513274;28;20039;-57
2021/01/23 02:34:29;;;;;;;47.15;23.45;;;;;;;0.02;91.79;98799.88;3512242;28;20051;-57
2021/01/23 02:36:12;;;;;;;47.70;24.33;;;;;;;0.01;92.31;98799.00;3512630;28;20476;-48
2021/01/23 02:37:55;;;;;;;43.13;21.00;;;;;;;0.01;91.96;98808.31;3514746;28;20378;-44
2021/01/23 02:39:37;;;;;;;40.85;22.42;;;;;;;-0.03;92.27;98807.31;3512931;28;20068;-57
2021/01/23 02:41:19;;;;;;;42.25;22.38;;;;;;;-0.05;91.94;98808.94;3514465;28;20452;-57
2021/01/23 02:43:03;;;;;;;47.08;24.90;;;;;;;-0.08;91.90;98806.25;3514216;28;20140;-57
2021/01/23 02:44:45;;;;;;;;;;;;;;;-0.11;91.99;98801.06;3514464;28;20043;-56
2021/01/23 02:46:27;;;;;;;47.60;23.67;;;;;;;-0.14;92.02;98803.47;3511079;28;20327;-56
2021/01/23 02:48:09;;;;;;;64.25;29.27;;;;;;;-0.17;91.76;98808.44;3512273;28;20130;-57
2021/01/23 02:49:51;;;;;;;62.85;27.67;;;;;;;-0.20;92.21;98815.94;3513860;28;20098;-57
2021/01/23 02:51:36;;;;;;;62.90;28.67;;;;;;;-0.22;92.28;98820.09;3514050;28;20500;-45
2021/01/23 02:53:22;;;;;;;66.38;28.77;;;;;;;-0.25;92.11;98810.66;3512525;28;20059;-44
2021/01/23 02:55:07;;;;;;;58.10;27.92;;;;;;;-0.27;92.50;98804.63;3515584;28;20048;-45
2021/01/23 02:56:49;;;;;;;51.95;27.95;;;;;;;-0.29;92.17;98813.00;3510179;28;20052;-45
2021/01/23 02:58:32;;;;;;;49.58;27.17;;;;;;;-0.31;92.58;98812.06;3515610;28;20075;-57
2021/01/23 03:00:17;;;;;;;52.47;27.17;;;;;;;-0.35;92.25;98816.16;3511012;28;20044;-57
2021/01/23 03:02:01;;;;;;;53.90;26.10;;;;;;;-0.37;92.42;98810.13;3514789;28;20113;-57
2021/01/23 03:03:45;;;;;;;58.78;32.35;;;;;;;-0.39;92.44;98807.53;3510951;28;20127;-57
2021/01/23 03:05:27;;;;;;;56.20;27.52;;;;;;;-0.40;92.38;98810.88;3514537;28;20075;-44
2021/01/23 03:07:09;;;;;;;60.75;30.58;;;;;;;-0.41;92.64;98819.31;3511011;28;20504;-44
2021/01/23 03:08:51;;;;;;;50.10;27.10;;;;;;;-0.43;92.46;98823.50;3515793;28;20580;-57
2021/01/23 03:10:34;;;;;;;48.72;24.70;;;;;;;-0.45;92.55;98817.44;3510257;28;20178;-57
2021/01/23 03:12:16;;;;;;;46.97;25.00;;;;;;;-0.46;92.66;98818.25;3516215;28;20402;-57
2021/01/23 03:13:58;;;;;;;45.65;24.58;;;;;;;-0.45;92.87;98819.97;3509252;28;20048;-44
2021/01/23 03:15:40;;;;;;;47.58;23.85;;;;;;;-0.46;92.89;98819.94;3517410;28;20081;-45
2021/01/23 03:17:22;;;;;;;43.05;23.23;;;;;;;-0.48;92.87;98817.31;3511430;28;20147;-44
2021/01/23 03:19:04;;;;;;;47.30;23.42;;;;;;;-0.49;92.72;98818.13;3517781;28;20089;-46
2021/01/23 03:20:45;;;;;;;45.85;23.02;;;;;;;-0.50;92.95;98811.28;3508163;28;21090;-48
2021/01/23 03:22:27;;;;;;;41.83;23.15;;;;;;;-0.51;92.67;98807.00;3512651;28;20050;-46
2021/01/23 03:24:09;;;;;;;41.25;22.98;;;;;;;-0.50;92.70;98813.84;3511066;28;20056;-48
2021/01/23 03:25:51;;;;;;;45.53;24.92;;;;;;;-0.53;92.83;98804.38;3517015;28;20044;-48
2021/01/23 03:27:33;;;;;;;45.70;23.20;;;;;;;-0.53;92.69;98806.94;3509085;28;20051;-45
2021/01/23 03:29:15;;;;;;;38.65;21.23;;;;;;;-0.52;93.11;98805.25;3513030;28;20437;-45
2021/01/23 03:30:56;;;;;;;44.63;22.98;;;;;;;-0.54;92.95;98802.63;3505893;28;20539;-46
2021/01/23 03:32:39;;;;;;;40.78;20.92;;;;;;;-0.55;92.80;98803.44;3508758;28;20076;-48
2021/01/23 03:34:20;;;;;;;43.60;22.98;;;;;;;-0.55;92.77;98805.13;3505684;28;20052;-46
2021/01/23 03:36:02;;;;;;;44.40;22.73;;;;;;;-0.56;92.96;98814.41;3508503;28;20043;-48
2021/01/23 03:37:45;;;;;;;41.38;21.77;;;;;;;-0.57;93.11;98805.06;3506237;28;20047;-45
2021/01/23 03:39:27;;;;;;;42.03;22.13;;;;;;;-0.58;92.74;98808.41;3507726;28;20071;-48
2021/01/23 03:41:08;;;;;;;38.20;20.92;;;;;;;-0.60;92.98;98804.91;3503662;28;20420;-44
2021/01/23 03:42:50;;;;;;;41.42;21.85;;;;;;;-0.60;92.81;98809.16;3508220;28;20075;-46
2021/01/23 03:44:31;;;;;;;51.42;24.38;;;;;;;-0.60;92.86;98801.50;3504749;28;20044;-44
2021/01/23 03:46:13;;;;;;;46.88;22.33;;;;;;;-0.60;93.12;98804.06;3507836;28;20047;-46
2021/01/23 03:47:56;;;;;;;46.95;21.98;;;;;;;-0.62;92.89;98801.44;3506508;28;20059;-44
2021/01/23 03:49:38;;;;;;;45.47;23.55;;;;;;;-0.62;92.91;98800.56;3508238;28;20071;-45
2021/01/23 03:51:19;;;;;;;42.78;22.98;;;;;;;-0.62;92.90;98803.97;3506894;28;20063;-46
2021/01/23 03:53:01;;;;;;;53.97;24.60;;;;;;;-0.62;93.23;98805.66;3507967;28;20063;-44
2021/01/23 03:54:43;;;;;;;48.05;23.85;;;;;;;-0.63;93.25;98798.81;3507338;28;20036;-44
2021/01/23 03:56:25;;;;;;;44.40;22.10;;;;;;;-0.66;92.77;98791.94;3507785;28;20087;-45
2021/01/23 03:58:07;;;;;;;48.15;22.42;;;;;;;-0.66;93.01;98801.22;3506931;28;20071;-45
2021/01/23 03:59:48;;;;;;;41.38;22.08;;;;;;;-0.67;93.09;98804.59;3512470;28;20082;-45
2021/01/23 04:01:30;;;;;;;42.58;21.73;;;;;;;-0.66;92.95;98808.88;3512195;28;20047;-45
2021/01/23 04:03:12;;;;;;;38.83;20.73;;;;;;;-0.66;93.21;98802.13;3513248;28;20052;-44
2021/01/23 04:04:55;;;;;;;41.80;22.08;;;;;;;-0.66;93.30;98808.88;3511334;28;20423;-45
2021/01/23 04:06:36;;;;;;;41.78;20.88;;;;;;;-0.67;92.97;98815.63;3513833;28;20059;-43
2021/01/23 04:08:18;;;;;;;46.90;22.40;;;;;;;-0.67;93.14;98814.78;3512005;28;20051;-45
2021/01/23 04:09:59;;;;;;;43.33;22.30;;;;;;;-0.68;93.17;98816.44;3514130;28;20047;-43
2021/01/23 04:11:45;;;;;;;43.22;22.25;;;;;;;-0.67;93.06;98822.41;3511684;28;20055;-43
2021/01/23 04:13:27;;;;;;;44.90;22.70;;;;;;;-0.70;93.17;98818.03;3512319;28;21954;-44
2021/01/23 04:15:09;;;;;;;45.42;23.27;;;;;;;-0.71;92.98;98818.88;3512972;28;20059;-44
2021/01/23 04:16:51;;;;;;;39.25;20.98;;;;;;;-0.73;92.94;98818.78;3512171;28;20082;-43
2021/01/23 04:18:33;;;;;;;45.92;22.27;;;;;;;-0.75;93.03;98817.84;3512907;28;20055;-44
2021/01/23 04:20:15;;;;;;;44.28;21.27;;;;;;;-0.74;93.03;98813.63;3512193;28;20048;-44
2021/01/23 04:21:57;;;;;;;41.72;21.13;;;;;;;-0.75;93.03;98814.41;3513856;28;20052;-44
2021/01/23 04:23:39;;;;;;;37.13;19.45;;;;;;;-0.76;93.08;98815.25;3512593;28;20055;-43
2021/01/23 04:25:21;;;;;;;45.70;20.95;;;;;;;-0.76;92.96;98820.34;3511922;28;20052;-43
2021/01/23 04:27:03;;;;;;;42.60;21.67;;;;;;;-0.77;93.16;98818.56;3514130;28;20059;-44
2021/01/23 04:28:45;;;;;;;44.75;22.52;;;;;;;-0.78;93.22;98810.06;3511949;28;20106;-43
2021/01/23 04:30:26;;;;;;;43.65;21.38;;;;;;;-0.78;93.37;98810.06;3512365;28;20578;-43
2021/01/23 04:32:08;;;;;;;45.42;22.05;;;;;;;-0.78;93.31;98810.06;3512129;28;20155;-43
2021/01/23 04:33:51;;;;;;;44.17;21.75;;;;;;;-0.77;93.44;98808.38;3512157;28;20377;-42
2021/01/23 04:35:32;;;;;;;43.70;22.20;;;;;;;-0.77;93.27;98803.31;3513346;28;20394;-42
2021/01/23 04:37:14;;;;;;;46.20;22.48;;;;;;;-0.75;93.49;98799.13;3513307;28;20049;-43
2021/01/23 04:38:56;;;;;;;40.67;21.75;;;;;;;-0.73;93.48;98797.53;3513374;28;20044;-43
2021/01/23 04:40:37;;;;;;;42.88;21.58;;;;;;;-0.73;93.82;98797.53;3512962;28;20410;-43
2021/01/23 04:42:20;;;;;;;45.95;22.77;;;;;;;-0.73;93.58;98803.50;3514201;28;20121;-42
2021/01/23 04:44:02;;;;;;;44.80;21.70;;;;;;;-0.71;93.48;98801.03;3509926;28;20523;-42
2021/01/23 04:45:44;;;;;;;41.85;21.30;;;;;;;-0.74;93.54;98799.22;3514237;28;20480;-42
2021/01/23 04:47:26;;;;;;;41.70;20.75;;;;;;;-0.72;93.18;98801.84;3510187;28;20047;-43
2021/01/23 04:49:08;;;;;;;44.38;20.38;;;;;;;-0.74;93.37;98809.41;3513644;28;20040;-43
2021/01/23 04:50:50;;;;;;;43.22;20.92;;;;;;;-0.75;93.13;98806.78;3510129;28;20048;-42
2021/01/23 04:52:36;;;;;;;42.78;20.92;;;;;;;-0.76;93.23;98808.47;3513737;28;20135;-42
2021/01/23 04:54:18;;;;;;;46.78;23.42;;;;;;;-0.78;93.04;98802.44;3511334;28;20048;-52
2021/01/23 04:56:00;;;;;;;45.78;22.58;;;;;;;-0.78;92.89;98810.06;3513927;28;20040;-55
2021/01/23 04:57:43;;;;;;;44.13;20.17;;;;;;;-0.79;92.96;98810.00;3511388;28;20279;-54
2021/01/23 04:59:25;;;;;;;52.92;22.77;;;;;;;-0.81;92.89;98811.63;3515641;28;20055;-54
2021/01/23 05:01:11;;;;;;;41.50;20.90;;;;;;;-0.81;92.88;98822.66;3513793;28;20083;-53
2021/01/23 05:02:58;;;;;;;45.83;22.20;;;;;;;-0.83;93.06;98815.78;3515773;28;20503;-54
2021/01/23 05:04:43;;;;;;;43.58;22.42;;;;;;;-0.85;93.03;98818.25;3512058;28;20048;-53
2021/01/23 05:06:26;;;;;;;45.30;23.55;;;;;;;-0.87;93.22;98832.59;3515799;28;20128;-54
2021/01/23 05:08:09;;;;;;;51.45;23.10;;;;;;;-0.88;93.13;98829.97;3512196;28;20055;-54
2021/01/23 05:09:51;;;;;;;44.42;21.60;;;;;;;-0.91;92.98;98829.03;3517639;28;20051;-54
2021/01/23 05:11:45;;;;;;;47.03;22.52;;;;;;;-0.95;92.99;98834.75;3510474;28;20113;-54
2021/01/23 05:13:27;;;;;;;45.72;22.02;;;;;;;-0.96;93.09;98827.94;3514075;28;20428;-52
2021/01/23 05:15:11;;;;;;;45.28;20.95;;;;;;;-0.98;93.13;98826.13;3513187;28;20499;-50
2021/01/23 05:16:52;;;;;;;;;;;;;;;-0.99;93.33;98832.03;3518902;28;20062;-42
2021/01/23 05:18:34;;;;;;;43.17;23.08;;;;;;;-1.01;93.11;98831.06;3510534;28;19931;-42
2021/01/23 05:20:33;;;;;;;50.53;23.95;;;;;;;-1.03;93.02;98831.03;3517349;28;20508;-42
2021/01/23 05:22:15;;;;;;;63.72;31.50;;;;;;;-1.03;93.46;98828.47;3513349;28;20514;-52
2021/01/23 05:24:08;;;;;;;68.00;35.25;;;;;;;-1.02;93.26;98839.50;3516174;28;20044;-54
2021/01/23 05:25:50;;;;;;;58.65;30.23;;;;;;;-1.04;93.37;98833.50;3513797;28;20048;-53
2021/01/23 05:27:45;;;;;;;53.05;25.13;;;;;;;-1.05;93.26;98824.09;3514623;28;20071;-42
2021/01/23 05:29:27;;;;;;;49.28;23.30;;;;;;;-1.07;93.26;98818.06;3515118;28;20074;-42
2021/01/23 05:31:16;;;;;;;44.67;23.08;;;;;;;-1.05;93.48;98821.56;3513213;28;20146;-42
2021/01/23 05:33:05;;;;;;;43.17;21.65;;;;;;;-1.06;93.46;98817.28;3514983;28;20079;-42
2021/01/23 05:34:47;;;;;;;47.38;23.70;;;;;;;-1.06;93.51;98813.06;3512262;28;20107;-42
2021/01/23 05:36:40;;;;;;;48.80;22.63;;;;;;;-1.04;93.53;98813.13;3516269;28;20051;-42
2021/01/23 05:38:27;;;;;;;48.40;22.95;;;;;;;-1.04;93.57;98819.09;3512070;28;20055;-42
2021/01/23 05:40:09;;;;;;;48.85;23.55;;;;;;;-1.04;93.60;98823.31;3516580;28;20044;-42
2021/01/23 05:42:05;;;;;;;48.78;23.40;;;;;;;-1.05;93.65;98824.97;3511882;28;20087;-42
2021/01/23 05:43:48;;;;;;;45.25;21.65;;;;;;;-1.05;93.68;98830.06;3517073;28;20085;-41
2021/01/23 05:45:29;;;;;;;41.83;22.67;;;;;;;-1.05;93.60;98824.09;3507660;28;20097;-42
2021/01/23 05:47:24;;;;;;;46.40;24.25;;;;;;;-1.04;93.47;98828.41;3517838;28;20047;-53
2021/01/23 05:49:05;;;;;;;59.15;28.90;;;;;;;-1.05;93.65;98827.50;3511679;28;20504;-53
2021/01/23 05:50:50;;;;;;;54.83;26.55;;;;;;;-1.05;93.81;98832.59;3515565;28;20048;-42
2021/01/23 05:52:32;;;;;;;56.08;26.67;;;;;;;-1.05;93.47;98839.38;3512053;28;20065;-42
2021/01/23 05:54:14;;;;;;;49.88;25.10;;;;;;;-1.06;93.45;98835.09;3515206;28;20083;-42
2021/01/23 05:55:57;;;;;;;57.67;30.10;;;;;;;-1.06;93.69;98832.56;3513199;28;20071;-42
2021/01/23 05:57:39;;;;;;;54.35;29.17;;;;;;;-1.08;93.61;98829.03;3515477;28;20068;-42
2021/01/23 05:59:21;;;;;;;57.05;29.15;;;;;;;-1.11;93.37;98830.66;3512124;28;20058;-43
2021/01/23 06:01:05;;;;;;;50.63;27.23;;;;;;;-1.12;93.29;98831.47;3515235;28;20051;-42
2021/01/23 06:02:46;;;;;;;;;;;;;;;-1.13;93.34;98836.47;3514023;28;20497;-53
2021/01/23 06:04:28;;;;;;;47.20;23.50;;;;;;;-1.14;93.47;98833.03;3515580;28;19957;-55
2021/01/23 06:06:10;;;;;;;48.28;23.35;;;;;;;-1.15;93.56;98833.00;3511693;28;20055;-54
2021/01/23 06:07:52;;;;;;;54.75;24.80;;;;;;;-1.17;93.76;98834.56;3515419;28;20050;-54
2021/01/23 06:09:35;;;;;;;53.58;25.50;;;;;;;-1.19;93.72;98839.63;3512658;28;20598;-54
2021/01/23 06:11:39;;;;;;;77.40;33.97;;;;;;;-1.20;93.80;98837.00;3513381;28;20099;-54
2021/01/23 06:13:39;;;;;;;77.20;35.45;;;;;;;-1.20;93.79;98842.94;3514944;28;20048;-54
2021/01/23 06:15:34;;;;;;;56.40;26.45;;;;;;;-1.19;93.75;98854.88;3511079;28;20048;-55
2021/01/23 06:17:45;;;;;;;47.10;24.27;;;;;;;-1.18;93.87;98856.63;3514788;28;20051;-55
2021/01/23 06:19:41;;;;;;;51.72;25.40;;;;;;;-1.15;93.73;98848.28;3511065;28;20048;-54
2021/01/23 06:21:48;;;;;;;70.43;36.17;;;;;;;-1.14;93.73;98850.00;3514311;28;20048;-54
2021/01/23 06:23:50;;;;;;;64.63;32.22;;;;;;;-1.12;93.69;98839.09;3515127;28;20062;-42
2021/01/23 06:25:56;;;;;;;60.83;30.75;;;;;;;-1.08;93.74;98841.75;3510508;28;20079;-42
2021/01/23 06:27:48;;;;;;;54.45;27.58;;;;;;;-1.06;93.73;98845.28;3517718;28;20076;-55
2021/01/23 06:29:31;;;;;;;53.55;27.15;;;;;;;-1.03;93.93;98842.84;3511751;28;20051;-54
2021/01/23 06:31:33;;;;;;;59.05;29.58;;;;;;;-1.02;93.94;98848.00;3517661;28;20052;-55
2021/01/23 06:33:33;;;;;;;54.58;26.48;;;;;;;-0.98;94.00;98856.66;3513194;28;20130;-42
2021/01/23 06:35:14;;;;;;;54.17;25.50;;;;;;;-0.96;93.79;98853.41;3509226;28;20083;-53
2021/01/23 06:37:21;;;;;;;46.70;24.55;;;;;;;-0.92;93.70;98854.41;3510280;28;20071;-42
2021/01/23 06:39:06;;;;;;;55.45;25.65;;;;;;;-0.87;93.86;98854.59;3506636;28;20048;-42
2021/01/23 06:40:48;;;;;;;45.90;23.00;;;;;;;-0.85;93.55;98851.34;3510384;28;20044;-43
2021/01/23 06:42:29;;;;;;;58.58;25.33;;;;;;;-0.81;93.80;98855.75;3507756;28;20097;-42
2021/01/23 06:44:17;;;;;;;46.85;22.88;;;;;;;-0.78;93.61;98853.38;3508896;28;20089;-42
2021/01/23 06:45:58;;;;;;;47.00;23.48;;;;;;;-0.73;93.79;98857.00;3508232;28;20093;-42
2021/01/23 06:47:41;;;;;;;45.95;23.48;;;;;;;-0.70;93.57;98853.69;3517168;28;20927;-42
2021/01/23 06:49:23;;;;;;;47.42;23.42;;;;;;;-0.65;93.28;98857.31;3510789;28;20521;-43
2021/01/23 06:51:05;;;;;;;46.75;23.10;;;;;;;-0.58;93.29;98856.78;3517296;28;20048;-43
2021/01/23 06:52:47;;;;;;;47.35;23.38;;;;;;;-0.53;93.29;98854.47;3511870;28;20073;-42
2021/01/23 06:54:30;;;;;;;63.08;27.73;;;;;;;-0.47;93.55;98847.06;3517802;28;20512;-44
2021/01/23 06:56:14;;;;;;;56.92;26.77;;;;;;;-0.42;93.02;98845.59;3507681;28;20502;-42
2021/01/23 06:57:56;;;;;;;52.50;26.17;;;;;;;-0.33;93.24;98845.13;3517064;28;20051;-42
2021/01/23 06:59:38;;;;;;;53.40;27.38;;;;;;;-0.25;93.40;98840.34;3509723;28;20561;-42
2021/01/23 07:01:19;;;;;;;52.45;26.33;;;;;;;-0.16;93.08;98841.63;3516467;28;20055;-42
2021/01/23 07:03:07;;;;;;;57.53;29.50;;;;;;;-0.06;93.22;98837.81;3509840;28;20051;-43
2021/01/23 07:04:50;;;;;;;71.25;35.95;;;;;;;0.00;92.91;98853.34;3514920;28;20048;-42
2021/01/23 07:06:32;;;;;;;63.30;31.77;;;;;;;0.09;92.81;98854.56;3510336;28;20044;-45
2021/01/23 07:08:36;;;;;;;52.67;25.25;;;;;;;0.16;91.95;98859.09;3514544;28;20048;-46
2021/01/23 07:10:18;;;;;;;52.05;24.33;;;;;;;0.21;91.93;98852.50;3507383;28;20055;-46
2021/01/23 07:12:00;;;;;;;49.08;23.40;;;;;;;0.33;92.14;98854.66;3511741;28;20044;-45
2021/01/23 07:14:04;;;;;;;66.10;34.85;;;;;;;0.45;92.24;98854.31;3513723;28;20083;-48
2021/01/23 07:15:46;;;;;;;91.93;47.45;;;;;;;0.49;91.52;98857.06;3511347;28;20051;-46
2021/01/23 07:17:27;;;;;;;133.27;59.10;;;;;;;0.53;90.68;98861.47;3511714;28;20052;-45
2021/01/23 07:19:09;;;;;;;75.72;37.15;;;;;;;0.59;91.05;98859.19;3507811;28;20040;-45
2021/01/23 07:20:50;;;;;;;57.03;28.48;;;;;;;0.70;91.19;98854.50;3509304;28;20047;-46
2021/01/23 07:22:32;;;;;;;53.25;24.55;;;;;;;0.84;91.72;98859.25;3504604;28;20052;-46
2021/01/23 07:24:14;;;;;;;44.40;22.92;;;;;;;0.96;91.16;98859.72;3509437;28;20056;-59
2021/01/23 07:26:00;;;;;;;47.03;23.63;;;;;;;1.07;90.34;98866.13;3508058;28;20566;-59
2021/01/23 07:27:43;;;;;;;45.75;22.95;;;;;;;1.15;89.39;98867.28;3509538;28;20051;-58
2021/01/23 07:29:25;;;;;;;44.10;22.13;;;;;;;1.24;88.87;98859.09;3507955;28;20109;-59
2021/01/23 07:31:17;;;;;;;45.03;22.63;;;;;;;1.29;88.26;98855.03;3506878;28;20205;-59
2021/01/23 07:32:59;;;;;;;41.92;22.38;;;;;;;1.30;87.27;98850.78;3504801;28;20456;-59
2021/01/23 07:34:52;;;;;;;43.30;22.85;;;;;;;1.33;87.53;98851.75;3509803;28;20052;-61
2021/01/23 07:36:36;;;;;;;41.15;23.63;;;;;;;1.38;87.49;98850.25;3504614;28;20044;-61
2021/01/23 07:38:18;;;;;;;41.28;22.17;;;;;;;1.37;86.19;98847.63;3509749;28;20052;-46
2021/01/23 07:40:00;;;;;;;46.08;23.23;;;;;;;1.39;87.27;98846.03;3507117;28;20070;-47
2021/01/23 07:41:48;;;;;;;41.08;22.05;;;;;;;1.43;87.00;98840.19;3510035;28;20265;-51
2021/01/23 07:43:29;;;;;;;43.67;22.08;;;;;;;1.50;87.69;98839.59;3505613;28;20048;-49
2021/01/23 07:45:12;;;;;;;55.78;28.52;;;;;;;1.55;86.50;98845.75;3505482;28;20079;-46
2021/01/23 07:46:56;;;;;;;56.72;27.67;;;;;;;1.65;87.02;98848.63;3507344;28;20105;-46
2021/01/23 07:48:40;;;;;;;56.85;29.17;;;;;;;1.65;85.54;98849.50;3507854;28;20048;-46
2021/01/23 07:50:23;;;;;;;52.00;26.70;;;;;;;1.69;86.43;98858.16;3504848;28;20044;-46
2021/01/23 07:52:06;;;;;;;;;;;;;;;1.69;85.93;98859.03;3509459;28;20052;-46
2021/01/23 07:54:06;;;;;;;51.33;27.42;;;;;;;1.77;86.96;98861.00;3506718;28;19931;-48
2021/01/23 07:55:49;;;;;;;54.15;27.60;;;;;;;1.90;87.64;98866.59;3512231;28;20040;-47
2021/01/23 07:57:32;;;;;;;46.78;24.10;;;;;;;2.02;86.37;98873.81;3505937;28;20560;-46
2021/01/23 07:59:13;;;;;;;62.33;30.15;;;;;;;2.14;86.07;98881.03;3509433;28;20051;-47
2021/01/23 08:00:55;;;;;;;69.22;33.05;;;;;;;2.20;85.60;98880.38;3506289;28;20405;-46
2021/01/23 08:02:50;;;;;;;90.30;42.72;;;;;;;2.27;85.05;98875.53;3507224;28;20047;-47
2021/01/23 08:04:32;;;;;;;50.88;24.88;;;;;;;2.27;83.80;98880.66;3506775;28;20424;-46